Time;durP1;ratioP1;P1;durP2;ratioP2;P2;SDS_P1;SDS_P2;PMS_P1;PMS_P2;Temp;Humidity;BMP_temperature;BMP_pressure;BME280_temperature;BME280_humidity;BME280_pressure;Samples;Min_cycle;Max_cycle;Signal;HPM_P1;HPM_P2
2022/03/10 00:02:13;;;;;;;31.80;21.58;;;;;;;5.29;56.53;102121.09;5030556;28;20033;-75
2022/03/10 00:04:38;;;;;;;32.92;21.30;;;;;;;5.24;56.51;102126.06;5032484;28;20052;-72
2022/03/10 00:07:04;;;;;;;38.92;22.00;;;;;;;5.19;56.45;102128.41;5030960;28;20128;-70
2022/03/10 00:09:30;;;;;;;37.38;22.63;;;;;;;5.14;56.58;102127.03;5031127;28;20040;-72
2022/03/10 00:11:56;;;;;;;34.20;21.75;;;;;;;5.12;56.95;102134.41;5032905;28;20033;-74
2022/03/10 00:14:22;;;;;;;36.55;21.52;;;;;;;5.12;56.86;102129.03;5032389;28;20040;-71
2022/03/10 00:16:49;;;;;;;32.83;21.55;;;;;;;5.10;56.50;102133.72;5019538;28;20034;-74
2022/03/10 00:19:14;;;;;;;41.67;23.10;;;;;;;5.08;57.08;102133.03;5012876;28;20088;-73
2022/03/10 00:21:39;;;;;;;35.47;22.23;;;;;;;5.09;56.94;102139.25;5012603;28;20437;-71
2022/03/10 00:24:05;;;;;;;34.63;22.95;;;;;;;5.06;57.05;102134.19;5011486;28;20030;-73
2022/03/10 00:26:31;;;;;;;36.85;22.63;;;;;;;5.06;57.42;102137.72;5012067;28;20033;-74
2022/03/10 00:28:56;;;;;;;36.83;22.88;;;;;;;5.05;57.02;102135.19;5012775;28;20125;-72
2022/03/10 00:31:21;;;;;;;34.30;22.42;;;;;;;5.04;56.76;102129.00;5012177;28;20041;-71
2022/03/10 00:33:47;;;;;;;39.17;22.65;;;;;;;5.01;57.82;102133.81;5012765;28;20165;-74
2022/03/10 00:36:12;;;;;;;38.25;23.02;;;;;;;5.00;57.76;102126.75;5011441;28;20037;-74
2022/03/10 00:38:38;;;;;;;33.80;23.48;;;;;;;4.96;57.65;102132.44;5012150;28;20072;-74
2022/03/10 00:41:03;;;;;;;34.60;23.23;;;;;;;4.93;57.28;102130.06;5012425;28;20118;-74
2022/03/10 00:43:28;;;;;;;33.63;22.33;;;;;;;4.90;57.81;102130.38;5012349;28;20034;-74
2022/03/10 00:45:54;;;;;;;36.63;22.80;;;;;;;4.85;57.66;102131.88;5012632;28;20034;-72
2022/03/10 00:48:19;;;;;;;35.95;22.38;;;;;;;4.82;57.85;102134.88;5012902;28;20030;-74
2022/03/10 00:50:44;;;;;;;33.90;22.73;;;;;;;4.78;58.15;102137.81;5012406;28;20040;-74
2022/03/10 00:53:10;;;;;;;33.50;22.17;;;;;;;4.77;58.29;102135.28;5011300;28;20038;-74
2022/03/10 00:55:35;;;;;;;32.55;22.10;;;;;;;4.72;58.66;102134.94;5016282;28;20266;-73
2022/03/10 00:58:01;;;;;;;34.95;22.77;;;;;;;4.70;57.99;102135.09;5022585;28;20045;-74
2022/03/10 01:00:28;;;;;;;32.45;22.48;;;;;;;4.71;58.33;102131.41;5010270;28;20034;-72
2022/03/10 01:02:55;;;;;;;35.17;22.33;;;;;;;4.71;57.92;102133.25;5012039;28;20030;-72
2022/03/10 01:05:21;;;;;;;35.47;22.55;;;;;;;4.73;58.56;102136.63;5010991;28;20034;-73
2022/03/10 01:07:47;;;;;;;37.45;23.15;;;;;;;4.74;58.13;102146.34;5012232;28;20389;-72
2022/03/10 01:10:13;;;;;;;31.73;21.85;;;;;;;4.67;57.90;102127.34;5011157;28;20026;-73
2022/03/10 01:12:42;;;;;;;34.90;23.25;;;;;;;4.67;58.70;102138.06;5014958;28;20025;-72
2022/03/10 01:15:09;;;;;;;37.88;23.25;;;;;;;4.64;58.75;102141.06;5032100;28;20033;-74
2022/03/10 01:17:34;;;;;;;37.03;22.88;;;;;;;4.62;58.23;102145.75;5030561;28;20493;-74
2022/03/10 01:20:00;;;;;;;39.17;23.45;;;;;;;4.64;58.50;102140.22;5031781;28;20052;-74
2022/03/10 01:22:25;;;;;;;36.25;22.60;;;;;;;4.60;58.25;102137.00;5031770;28;20117;-74
2022/03/10 01:24:51;;;;;;;37.15;22.50;;;;;;;4.60;58.35;102134.31;5030533;28;20022;-74
2022/03/10 01:27:16;;;;;;;38.50;22.85;;;;;;;4.57;58.71;102129.25;5029195;28;20482;-70
2022/03/10 01:29:41;;;;;;;34.53;23.63;;;;;;;4.53;58.27;102128.75;5011731;28;20022;-71
2022/03/10 01:32:07;;;;;;;35.08;22.88;;;;;;;4.51;58.60;102129.88;5010950;28;20543;-71
2022/03/10 01:34:32;;;;;;;34.60;22.83;;;;;;;4.50;58.46;102133.56;5011870;28;20442;-71
2022/03/10 01:36:58;;;;;;;39.38;23.67;;;;;;;4.54;58.83;102140.31;5012178;28;20527;-73
2022/03/10 01:39:24;;;;;;;35.45;22.60;;;;;;;4.53;58.48;102123.38;5013771;28;20429;-73
2022/03/10 01:41:49;;;;;;;35.08;23.08;;;;;;;4.52;59.10;102132.41;5015429;28;20026;-72
2022/03/10 01:44:16;;;;;;;34.25;23.15;;;;;;;4.51;58.69;102129.88;5015786;28;20100;-74
2022/03/10 01:46:41;;;;;;;35.10;23.00;;;;;;;4.51;58.30;102129.88;5014076;28;20390;-73
2022/03/10 01:49:06;;;;;;;33.67;22.15;;;;;;;4.47;58.95;102125.81;5015471;28;20045;-70
2022/03/10 01:51:33;;;;;;;37.85;22.85;;;;;;;4.47;58.25;102128.50;5015110;28;20037;-72
2022/03/10 01:53:58;;;;;;;32.97;23.10;;;;;;;4.43;59.09;102123.44;5015383;28;20033;-72
2022/03/10 01:56:24;;;;;;;38.08;23.67;;;;;;;4.45;59.35;102125.97;5014101;28;20076;-73
2022/03/10 01:58:50;;;;;;;38.50;23.10;;;;;;;4.44;59.67;102125.13;5032717;28;20039;-74
2022/03/10 02:01:16;;;;;;;35.03;23.05;;;;;;;4.46;59.13;102124.16;5031381;28;20068;-73
2022/03/10 02:03:42;;;;;;;38.08;23.90;;;;;;;4.44;59.49;102122.47;5034460;28;20111;-72
2022/03/10 02:06:09;;;;;;;40.67;23.13;;;;;;;4.41;59.16;102122.78;5033567;28;20144;-71
2022/03/10 02:11:19;;;;;;;36.80;23.38;;;;;;;4.41;59.55;102119.25;5034848;28;20041;-72
2022/03/10 02:13:45;;;;;;;36.10;23.98;;;;;;;4.36;60.07;102118.84;5014724;28;20038;-72
2022/03/10 02:18:56;;;;;;;38.90;23.85;;;;;;;4.28;59.40;102114.25;5015015;28;20126;-73
2022/03/10 02:21:21;;;;;;;36.95;23.27;;;;;;;4.25;60.11;102117.25;5014660;28;20505;-71
2022/03/10 02:23:47;;;;;;;34.67;22.83;;;;;;;4.22;60.16;102110.34;5013265;28;20443;-74
2022/03/10 02:26:13;;;;;;;34.97;23.48;;;;;;;4.20;60.37;102111.50;5015129;28;20108;-74
2022/03/10 02:28:39;;;;;;;36.05;22.98;;;;;;;4.18;59.70;102119.69;5033077;28;20038;-73
2022/03/10 02:31:04;;;;;;;35.45;23.48;;;;;;;4.12;60.24;102119.44;5034476;28;20112;-72
2022/03/10 02:33:30;;;;;;;37.55;22.92;;;;;;;4.12;60.58;102116.75;5034352;28;20065;-71
2022/03/10 02:35:55;;;;;;;33.85;22.73;;;;;;;4.07;60.66;102122.56;5034230;28;20026;-71
2022/03/10 02:38:20;;;;;;;38.25;24.63;;;;;;;4.04;60.93;102121.03;5032764;28;20392;-72
2022/03/10 02:40:52;;;;;;;39.60;23.65;;;;;;;3.99;60.66;102114.47;5034046;28;20087;-72
2022/03/10 02:43:19;;;;;;;36.65;23.65;;;;;;;3.94;60.69;102116.72;5014424;28;20068;-73
2022/03/10 02:45:46;;;;;;;38.33;24.85;;;;;;;3.92;61.43;102122.25;5012954;28;20057;-70
2022/03/10 02:48:12;;;;;;;36.22;23.45;;;;;;;3.89;60.63;102126.09;5012989;28;20461;-70
2022/03/10 02:50:38;;;;;;;33.63;23.45;;;;;;;3.90;60.67;102119.72;5013350;28;20095;-71
2022/03/10 02:53:05;;;;;;;33.63;23.10;;;;;;;3.83;61.13;102117.78;5013061;28;20481;-72
2022/03/10 02:55:30;;;;;;;36.28;22.60;;;;;;;3.86;61.04;102115.63;5012872;28;20022;-74
2022/03/10 02:57:56;;;;;;;36.67;23.75;;;;;;;3.88;60.92;102113.66;5031574;28;20511;-74
2022/03/10 03:00:21;;;;;;;37.15;23.77;;;;;;;3.87;60.78;102116.50;5032920;28;20037;-72
2022/03/10 03:02:46;;;;;;;42.28;23.92;;;;;;;3.89;61.03;102119.84;5031022;28;20037;-74
2022/03/10 03:05:13;;;;;;;35.95;23.30;;;;;;;3.91;61.01;102115.22;5032736;28;20036;-72
2022/03/10 03:07:38;;;;;;;35.78;22.75;;;;;;;3.92;61.37;102116.88;5032566;28;20041;-71
2022/03/10 03:10:07;;;;;;;34.30;23.33;;;;;;;3.86;61.23;102112.13;5032427;28;20029;-72
2022/03/10 03:12:33;;;;;;;37.85;23.67;;;;;;;3.88;61.36;102112.81;5033187;28;20025;-74
2022/03/10 03:14:59;;;;;;;38.53;23.25;;;;;;;3.91;60.73;102112.53;5032288;28;20047;-73
2022/03/10 03:17:24;;;;;;;36.80;23.50;;;;;;;3.90;61.26;102116.19;5017502;28;20030;-73
2022/03/10 03:19:51;;;;;;;36.85;22.50;;;;;;;3.88;61.57;102120.84;5013577;28;20107;-71
2022/03/10 03:22:16;;;;;;;38.42;23.95;;;;;;;3.84;61.45;102123.00;5012450;28;20125;-74
2022/03/10 03:24:42;;;;;;;39.90;24.05;;;;;;;3.82;61.36;102121.44;5013380;28;20120;-72
2022/03/10 03:27:07;;;;;;;39.20;24.23;;;;;;;3.79;62.12;102116.38;5013776;28;20460;-74
2022/03/10 03:29:33;;;;;;;37.15;23.45;;;;;;;3.80;61.43;102128.78;5013180;28;20029;-73
2022/03/10 03:31:58;;;;;;;35.95;23.95;;;;;;;3.76;61.77;102127.41;5013813;28;20385;-71
2022/03/10 03:34:23;;;;;;;37.20;23.05;;;;;;;3.71;62.46;102134.06;5013550;28;20026;-73
2022/03/10 03:36:49;;;;;;;37.97;23.58;;;;;;;3.68;62.49;102139.72;5011946;28;20117;-69
2022/03/10 03:39:14;;;;;;;36.95;23.13;;;;;;;3.65;62.56;102131.94;5013478;28;20026;-78
2022/03/10 03:41:40;;;;;;;37.15;23.48;;;;;;;3.61;61.97;102127.91;5012834;28;20041;-72
2022/03/10 03:44:09;;;;;;;39.97;23.45;;;;;;;3.58;61.94;102130.00;5013350;28;20113;-73
2022/03/10 03:46:35;;;;;;;37.42;23.85;;;;;;;3.53;62.57;102125.97;5012907;28;20053;-72
2022/03/10 03:49:00;;;;;;;37.03;23.63;;;;;;;3.54;62.92;102132.16;5011976;28;20072;-73
2022/03/10 03:51:26;;;;;;;36.50;22.95;;;;;;;3.51;62.59;102130.59;5013346;28;20057;-70
2022/03/10 03:53:51;;;;;;;35.00;23.58;;;;;;;3.49;62.80;102132.59;5011732;28;20030;-70
2022/03/10 03:56:16;;;;;;;36.03;23.58;;;;;;;3.49;63.21;102140.63;5019912;28;20033;-71
2022/03/10 03:58:42;;;;;;;36.75;24.25;;;;;;;3.47;62.63;102147.09;5032370;28;20397;-69
2022/03/10 04:01:07;;;;;;;36.97;23.85;;;;;;;3.44;62.97;102150.06;5029893;28;20110;-72
2022/03/10 04:03:33;;;;;;;34.60;23.65;;;;;;;3.40;63.32;102159.38;5032302;28;20215;-73
2022/03/10 04:05:58;;;;;;;37.90;24.33;;;;;;;3.35;63.03;102154.47;5031792;28;20033;-72
2022/03/10 04:08:24;;;;;;;36.88;23.63;;;;;;;3.32;63.43;102158.28;5013081;28;20025;-73
2022/03/10 04:10:51;;;;;;;33.83;22.85;;;;;;;3.29;63.29;102150.56;5012789;28;20029;-71
2022/03/10 04:13:16;;;;;;;35.92;23.92;;;;;;;3.25;63.73;102165.19;5012925;28;20033;-72
2022/03/10 04:15:41;;;;;;;34.55;22.77;;;;;;;3.24;63.19;102163.50;5012773;28;20407;-72
2022/03/10 04:18:07;;;;;;;36.13;24.17;;;;;;;3.24;63.81;102173.38;5012850;28;20137;-70
2022/03/10 04:20:32;;;;;;;37.17;24.00;;;;;;;3.25;63.87;102169.72;5011726;28;20026;-69
2022/03/10 04:22:57;;;;;;;36.17;23.63;;;;;;;3.22;63.97;102165.47;5028114;28;20046;-71
2022/03/10 04:25:22;;;;;;;36.28;24.02;;;;;;;3.22;63.59;102168.16;5012827;28;20037;-72
2022/03/10 04:27:49;;;;;;;37.88;23.50;;;;;;;3.23;63.25;102167.19;5012318;28;20022;-71
2022/03/10 04:30:15;;;;;;;34.65;21.98;;;;;;;3.22;63.47;102162.81;5011483;28;20104;-71
2022/03/10 04:32:46;;;;;;;35.45;23.13;;;;;;;3.20;63.89;102162.09;5012525;28;20469;-72
2022/03/10 04:35:13;;;;;;;34.83;23.20;;;;;;;3.16;63.99;102163.38;5011503;28;20453;-71
2022/03/10 04:37:39;;;;;;;38.47;23.55;;;;;;;3.12;63.49;102156.63;5012641;28;20629;-72
2022/03/10 04:40:06;;;;;;;39.72;23.50;;;;;;;3.13;63.48;102167.19;5031152;28;20026;-73
2022/03/10 04:42:33;;;;;;;36.15;23.45;;;;;;;3.10;64.03;102161.28;5032641;28;20038;-71
2022/03/10 04:44:58;;;;;;;36.83;23.45;;;;;;;3.06;63.69;102154.53;5032104;28;20117;-69
2022/03/10 04:47:23;;;;;;;41.15;23.48;;;;;;;2.99;63.28;102151.59;5031016;28;20124;-73
2022/03/10 04:49:49;;;;;;;34.13;22.73;;;;;;;3.00;64.13;102155.94;5031834;28;20021;-72
2022/03/10 04:52:14;;;;;;;38.35;23.38;;;;;;;3.00;63.98;102159.47;5030331;28;20048;-69
2022/03/10 04:54:39;;;;;;;35.15;23.60;;;;;;;3.02;64.46;102162.00;5011051;28;20477;-70
2022/03/10 04:57:04;;;;;;;36.60;23.23;;;;;;;3.02;63.86;102159.34;5012532;28;20034;-69
2022/03/10 04:59:31;;;;;;;34.05;23.48;;;;;;;2.99;63.94;102157.78;5012478;28;20066;-70
2022/03/10 05:01:57;;;;;;;36.70;23.23;;;;;;;3.03;63.50;102155.66;5009898;28;20401;-70
2022/03/10 05:04:22;;;;;;;36.25;23.13;;;;;;;3.04;62.81;102159.19;5012154;28;20026;-72
2022/03/10 05:06:47;;;;;;;38.55;22.98;;;;;;;3.07;63.58;102169.59;5012154;28;20025;-70
2022/03/10 05:09:12;;;;;;;37.40;22.90;;;;;;;3.08;63.84;102166.78;5030453;28;20042;-72
2022/03/10 05:11:38;;;;;;;38.13;22.50;;;;;;;3.09;63.31;102162.28;5032206;28;20030;-73
2022/03/10 05:14:04;;;;;;;37.85;24.05;;;;;;;3.06;63.12;102165.22;5034726;28;20037;-71
2022/03/10 05:16:29;;;;;;;35.05;23.00;;;;;;;3.00;63.80;102162.16;5035823;28;20389;-70
2022/03/10 05:18:54;;;;;;;36.38;23.60;;;;;;;3.00;63.80;102169.31;5035626;28;20064;-73
2022/03/10 05:21:20;;;;;;;34.88;23.27;;;;;;;3.02;63.15;102170.03;5035498;28;20025;-71
2022/03/10 05:23:45;;;;;;;34.75;23.30;;;;;;;3.00;63.67;102175.53;5016985;28;20092;-71
2022/03/10 05:26:10;;;;;;;35.22;22.42;;;;;;;3.01;62.99;102177.19;5015931;28;20100;-71
2022/03/10 05:28:36;;;;;;;35.78;23.25;;;;;;;3.02;63.68;102178.06;5015925;28;20038;-70
2022/03/10 05:31:01;;;;;;;37.03;22.67;;;;;;;2.94;62.56;102165.38;5015397;28;20041;-73
2022/03/10 05:33:26;;;;;;;35.00;22.70;;;;;;;3.01;62.92;102171.84;5015532;28;20025;-71
2022/03/10 05:35:52;;;;;;;35.17;21.88;;;;;;;3.00;62.81;102167.50;5014199;28;20025;-73
2022/03/10 05:38:17;;;;;;;39.33;23.40;;;;;;;3.01;63.36;102169.16;5030318;28;20041;-69
2022/03/10 05:40:42;;;;;;;34.00;21.70;;;;;;;2.98;63.09;102164.09;5033872;28;20025;-71
2022/03/10 05:43:09;;;;;;;35.75;22.17;;;;;;;3.03;62.66;102171.69;5035105;28;20026;-69
2022/03/10 05:45:34;;;;;;;36.45;22.90;;;;;;;3.04;62.96;102172.56;5035331;28;20083;-70
2022/03/10 05:47:59;;;;;;;38.33;24.08;;;;;;;3.00;62.66;102169.31;5035038;28;20055;-72
2022/03/10 05:50:25;;;;;;;36.97;22.60;;;;;;;3.04;62.89;102172.56;5035493;28;20496;-72
2022/03/10 05:52:51;;;;;;;37.40;23.20;;;;;;;2.99;62.42;102165.81;5020736;28;20034;-69
2022/03/10 05:55:17;;;;;;;34.05;21.98;;;;;;;3.00;62.43;102177.34;5015676;28;20528;-71
2022/03/10 05:57:42;;;;;;;36.53;22.88;;;;;;;3.01;62.03;102171.00;5013878;28;20064;-69
2022/03/10 06:00:10;;;;;;;35.95;22.52;;;;;;;3.04;62.94;102172.56;5015284;28;20386;-72
2022/03/10 06:02:35;;;;;;;40.78;22.98;;;;;;;3.00;62.86;102170.19;5011522;28;20033;-71
2022/03/10 06:05:00;;;;;;;35.72;23.55;;;;;;;3.05;63.04;102171.56;5015137;28;20037;-71
2022/03/10 06:07:27;;;;;;;37.28;22.45;;;;;;;3.05;62.54;102161.72;5027417;28;20033;-69
2022/03/10 06:09:54;;;;;;;38.15;22.13;;;;;;;3.01;62.72;102162.97;5034686;28;20091;-69
2022/03/10 06:12:21;;;;;;;32.85;20.08;;;;;;;3.00;62.98;102167.50;5034865;28;20034;-71
2022/03/10 06:14:46;;;;;;;36.45;22.98;;;;;;;3.01;62.88;102168.34;5034556;28;20064;-70
2022/03/10 06:17:11;;;;;;;34.80;22.35;;;;;;;3.03;62.75;102165.50;5034984;28;20465;-69
2022/03/10 06:19:37;;;;;;;33.05;21.75;;;;;;;3.02;62.81;102167.34;5031820;28;20037;-72
2022/03/10 06:22:02;;;;;;;34.50;22.38;;;;;;;2.99;62.28;102170.31;5034134;28;20041;-70
2022/03/10 06:24:27;;;;;;;37.38;22.52;;;;;;;3.04;62.41;102172.56;5032438;28;20037;-72
2022/03/10 06:26:53;;;;;;;36.28;22.63;;;;;;;3.04;62.55;102172.56;5034363;28;20498;-69
2022/03/10 06:29:18;;;;;;;33.22;21.95;;;;;;;3.04;61.91;102176.06;5034546;28;20040;-71
2022/03/10 06:31:43;;;;;;;34.03;22.40;;;;;;;3.02;63.14;102170.03;5034497;28;20119;-72
2022/03/10 06:34:08;;;;;;;37.40;22.33;;;;;;;3.04;62.67;102175.25;5025164;28;20041;-71
2022/03/10 06:36:34;;;;;;;39.40;22.38;;;;;;;3.06;62.36;102179.44;5014330;28;20030;-70
2022/03/10 06:38:59;;;;;;;36.30;21.52;;;;;;;3.05;61.92;102174.22;5014374;28;20413;-70
2022/03/10 06:41:24;;;;;;;37.53;22.80;;;;;;;3.04;62.35;102180.59;5014536;28;20457;-70
2022/03/10 06:43:49;;;;;;;39.22;22.60;;;;;;;3.08;62.92;102180.16;5013936;28;20472;-71
2022/03/10 06:46:15;;;;;;;35.97;22.35;;;;;;;3.09;62.80;102181.00;5013272;28;20030;-71
2022/03/10 06:48:40;;;;;;;36.20;22.77;;;;;;;3.11;62.94;102179.88;5020801;28;20457;-70
2022/03/10 06:51:06;;;;;;;35.13;22.33;;;;;;;3.12;62.21;102183.38;5033900;28;20075;-70
2022/03/10 06:53:32;;;;;;;41.72;22.85;;;;;;;3.14;62.52;102184.06;5034075;28;20528;-70
2022/03/10 06:55:57;;;;;;;38.42;22.67;;;;;;;3.14;62.91;102184.94;5033664;28;20112;-71
2022/03/10 06:58:22;;;;;;;36.70;23.27;;;;;;;3.16;62.91;102185.63;5034111;28;20464;-72
2022/03/10 07:00:48;;;;;;;37.15;23.38;;;;;;;3.19;63.09;102192.53;5031461;28;20022;-70
2022/03/10 07:03:13;;;;;;;40.33;23.40;;;;;;;3.22;62.71;102197.59;5028196;28;20103;-71
2022/03/10 07:05:38;;;;;;;36.67;22.90;;;;;;;3.27;62.97;102192.63;5014011;28;20373;-71
2022/03/10 07:08:04;;;;;;;37.70;23.25;;;;;;;3.32;63.23;102198.41;5013758;28;20065;-70
2022/03/10 07:10:29;;;;;;;34.55;22.80;;;;;;;3.39;62.21;102193.31;5014006;28;20025;-74
2022/03/10 07:12:55;;;;;;;39.42;23.70;;;;;;;3.43;62.47;102200.09;5029315;28;20040;-75
2022/03/10 07:15:21;;;;;;;37.85;21.98;;;;;;;3.50;62.04;102194.97;5033552;28;20091;-76
2022/03/10 07:17:46;;;;;;;37.05;23.17;;;;;;;3.55;62.09;102203.44;5032014;28;20413;-77
2022/03/10 07:20:14;;;;;;;39.25;23.85;;;;;;;3.62;62.94;102199.16;5030125;28;20040;-76
2022/03/10 07:22:39;;;;;;;39.53;22.35;;;;;;;3.66;61.70;102195.22;5032266;28;20033;-75
2022/03/10 07:25:05;;;;;;;38.80;22.55;;;;;;;3.73;62.50;102201.69;5031927;28;20033;-75
2022/03/10 07:27:31;;;;;;;36.72;23.10;;;;;;;3.84;61.45;102194.47;5032188;28;20025;-74
2022/03/10 07:29:56;;;;;;;35.38;23.10;;;;;;;3.86;61.19;102195.97;5033113;28;20381;-79
2022/03/10 07:32:24;;;;;;;41.70;22.95;;;;;;;3.90;62.61;102201.91;5033271;28;20071;-73
2022/03/10 07:34:50;;;;;;;39.03;22.23;;;;;;;3.98;61.37;102202.00;5028264;28;20069;-74
2022/03/10 07:37:15;;;;;;;35.38;23.05;;;;;;;4.04;61.17;102198.72;5021188;28;20057;-74
2022/03/10 07:39:41;;;;;;;37.63;22.95;;;;;;;4.09;61.68;102198.25;5013450;28;20085;-75
2022/03/10 07:42:06;;;;;;;41.15;24.00;;;;;;;4.15;62.17;102197.69;5011884;28;20030;-77
2022/03/10 07:44:32;;;;;;;38.63;23.20;;;;;;;4.20;61.68;102199.94;5013327;28;20438;-76
2022/03/10 07:46:57;;;;;;;42.03;23.40;;;;;;;4.30;61.28;102191.81;5012700;28;20440;-76
2022/03/10 07:49:22;;;;;;;40.25;23.20;;;;;;;4.37;60.48;102192.91;5012894;28;20433;-74
2022/03/10 07:51:48;;;;;;;34.92;22.40;;;;;;;4.45;61.21;102195.66;5012473;28;20466;-73
2022/03/10 07:54:19;;;;;;;39.45;22.88;;;;;;;4.50;59.76;102197.88;5011789;28;20029;-81
2022/03/10 07:57:22;;;;;;;40.95;22.90;;;;;;;4.61;60.22;102189.63;5013297;28;20076;-79
2022/03/10 07:59:47;;;;;;;38.78;22.80;;;;;;;4.67;59.48;102180.16;5015341;28;20500;-78
2022/03/10 08:02:16;;;;;;;36.42;22.90;;;;;;;4.71;59.87;102187.72;5015826;28;20038;-78
2022/03/10 08:04:41;;;;;;;37.55;23.50;;;;;;;4.84;58.94;102187.31;5011324;28;20125;-79
2022/03/10 08:07:07;;;;;;;41.25;23.55;;;;;;;4.93;58.80;102185.56;5012892;28;20137;-78
2022/03/10 08:09:33;;;;;;;38.85;23.67;;;;;;;4.99;59.20;102186.78;5012408;28;20072;-78
2022/03/10 08:11:58;;;;;;;36.58;23.00;;;;;;;5.10;59.00;102189.22;5012263;28;20386;-78
2022/03/10 08:14:23;;;;;;;36.85;24.08;;;;;;;5.19;58.29;102184.75;5012668;28;20044;-81
2022/03/10 08:16:48;;;;;;;39.35;23.58;;;;;;;5.27;57.93;102191.03;5012879;28;20604;-79
2022/03/10 08:19:14;;;;;;;46.75;23.42;;;;;;;5.39;58.29;102204.19;5012679;28;20366;-75
2022/03/10 08:21:39;;;;;;;40.97;23.35;;;;;;;5.45;57.78;102198.19;5011545;28;20033;-77
2022/03/10 08:24:05;;;;;;;39.47;23.00;;;;;;;5.54;56.96;102202.63;5012595;28;20559;-84
2022/03/10 08:26:31;;;;;;;36.03;22.20;;;;;;;5.60;57.04;102196.63;5012966;28;20034;-81
2022/03/10 08:28:56;;;;;;;38.42;23.38;;;;;;;5.65;56.97;102193.47;5016145;28;20038;-73
2022/03/10 08:31:21;;;;;;;40.25;23.77;;;;;;;5.72;58.12;102194.47;5028610;28;20486;-79
2022/03/10 08:33:47;;;;;;;37.13;22.02;;;;;;;5.85;56.58;102194.06;5032396;28;20032;-74
2022/03/10 08:36:13;;;;;;;36.45;23.13;;;;;;;5.95;55.44;102194.78;5017473;28;20436;-75
2022/03/10 08:38:39;;;;;;;45.72;22.63;;;;;;;6.06;56.10;102188.31;5011319;28;20073;-75
2022/03/10 08:41:04;;;;;;;37.83;22.98;;;;;;;6.15;54.84;102189.19;5012520;28;20030;-75
2022/03/10 08:43:31;;;;;;;37.97;21.65;;;;;;;6.23;55.08;102183.81;5012397;28;20038;-77
2022/03/10 08:45:57;;;;;;;38.05;23.35;;;;;;;6.34;55.42;102182.66;5020364;28;20030;-76
2022/03/10 08:48:22;;;;;;;35.97;22.67;;;;;;;6.41;54.50;102178.31;5025373;28;20041;-76
2022/03/10 08:50:47;;;;;;;36.20;22.60;;;;;;;6.51;54.51;102184.41;5020093;28;20528;-77
2022/03/10 08:53:13;;;;;;;37.80;22.60;;;;;;;6.60;53.57;102187.94;5027043;28;20044;-76
2022/03/10 08:55:38;;;;;;;37.75;21.88;;;;;;;6.70;54.11;102183.25;5035940;28;20041;-78
2022/03/10 08:58:04;;;;;;;41.60;22.63;;;;;;;6.77;54.19;102185.28;5031003;28;20014;-80
2022/03/10 09:00:29;;;;;;;38.17;22.00;;;;;;;6.85;53.61;102180.72;5017407;28;20369;-80
2022/03/10 09:02:56;;;;;;;34.30;22.05;;;;;;;6.97;53.67;102177.72;5034564;28;20408;-77
2022/03/10 09:05:21;;;;;;;37.25;22.20;;;;;;;7.05;52.98;102188.47;5035686;28;20029;-78
2022/03/10 09:07:46;;;;;;;36.22;23.20;;;;;;;7.17;53.16;102184.44;5034658;28;20056;-82
2022/03/10 09:10:12;;;;;;;36.55;21.63;;;;;;;7.23;52.52;102177.53;5034630;28;20180;-78
2022/03/10 09:12:39;;;;;;;42.05;22.85;;;;;;;7.28;53.52;102175.19;5035116;28;20044;-81
2022/03/10 09:15:08;;;;;;;38.35;21.00;;;;;;;7.37;52.89;102171.44;5032876;28;20025;-79
2022/03/10 09:17:34;;;;;;;37.30;22.27;;;;;;;7.49;52.87;102171.94;5024142;28;20119;-76
2022/03/10 09:20:00;;;;;;;37.38;21.83;;;;;;;7.58;52.16;102165.50;5034260;28;20457;-77
2022/03/10 09:22:25;;;;;;;38.35;22.30;;;;;;;7.71;52.53;102158.72;5035396;28;20026;-79
2022/03/10 09:24:54;;;;;;;37.45;21.50;;;;;;;7.83;51.88;102162.72;5034381;28;20212;-79
2022/03/10 09:27:23;;;;;;;35.83;21.90;;;;;;;7.88;51.46;102154.97;5034136;28;20496;-79
2022/03/10 09:29:48;;;;;;;37.70;21.42;;;;;;;8.02;52.43;102160.63;5034050;28;20041;-79
2022/03/10 09:32:13;;;;;;;37.65;21.88;;;;;;;8.11;52.59;102148.81;5025389;28;20038;-80
2022/03/10 09:34:39;;;;;;;34.15;21.25;;;;;;;8.22;51.09;102143.00;5014694;28;20025;-81
2022/03/10 09:37:06;;;;;;;37.72;21.52;;;;;;;8.31;51.36;102147.31;5015683;28;20584;-79
2022/03/10 09:39:32;;;;;;;35.58;20.77;;;;;;;8.36;50.44;102140.56;5014503;28;20064;-79
2022/03/10 09:41:59;;;;;;;34.20;21.23;;;;;;;8.45;51.41;102139.50;5015519;28;20041;-77
2022/03/10 09:44:27;;;;;;;35.25;20.77;;;;;;;8.53;51.02;102142.16;5015345;28;20034;-80
2022/03/10 09:46:53;;;;;;;32.90;20.63;;;;;;;8.61;50.13;102134.00;5021315;28;20102;-79
2022/03/10 09:49:20;;;;;;;32.90;21.02;;;;;;;8.72;51.01;102134.59;5035228;28;20032;-80
2022/03/10 09:51:48;;;;;;;31.92;20.23;;;;;;;8.80;50.87;102137.22;5033774;28;20035;-81
2022/03/10 09:54:14;;;;;;;33.70;20.55;;;;;;;8.87;51.29;102130.09;5033536;28;20029;-80
2022/03/10 09:56:42;;;;;;;32.90;21.33;;;;;;;9.02;50.38;102130.94;5033599;28;20487;-82
2022/03/10 09:59:08;;;;;;;34.58;21.23;;;;;;;9.10;51.13;102131.91;5032567;28;20035;-82
2022/03/10 10:01:33;;;;;;;33.75;21.17;;;;;;;9.18;50.98;102123.72;5024916;28;20460;-81
2022/03/10 10:03:59;;;;;;;32.15;20.50;;;;;;;9.28;50.75;102115.34;5014676;28;20025;-76
2022/03/10 10:06:24;;;;;;;33.67;19.58;;;;;;;9.37;49.82;102115.06;5013725;28;20034;-78
2022/03/10 10:08:57;;;;;;;36.88;19.58;;;;;;;9.45;50.44;102124.97;5025012;28;20037;-78
2022/03/10 10:11:35;;;;;;;35.13;20.10;;;;;;;9.55;50.41;102116.56;5033442;28;20030;-79
2022/03/10 10:14:01;;;;;;;34.67;20.95;;;;;;;9.58;50.64;102119.72;5034412;28;20029;-80
2022/03/10 10:16:26;;;;;;;32.60;20.08;;;;;;;9.64;50.16;102115.44;5033611;28;20029;-80
2022/03/10 10:18:56;;;;;;;33.95;20.65;;;;;;;9.72;50.84;102123.47;5033583;28;20500;-80
2022/03/10 10:21:23;;;;;;;29.88;19.08;;;;;;;9.80;50.37;102122.50;5034455;28;20033;-81
2022/03/10 10:23:53;;;;;;;33.72;20.25;;;;;;;9.90;50.08;102117.66;5020839;28;20029;-80
2022/03/10 10:26:20;;;;;;;32.78;20.00;;;;;;;10.03;50.11;102114.25;5014757;28;20054;-81
2022/03/10 10:28:53;;;;;;;30.40;20.00;;;;;;;10.11;49.14;102105.19;5013696;28;20584;-82
2022/03/10 10:31:24;;;;;;;36.38;19.52;;;;;;;10.18;49.30;102110.69;5013168;28;20030;-80
2022/03/10 10:34:05;;;;;;;36.63;19.80;;;;;;;10.32;49.28;102109.78;4997202;28;20056;-79
2022/03/10 10:36:33;;;;;;;36.42;21.48;;;;;;;10.41;48.97;102113.22;5014655;28;20030;-78
2022/03/10 10:39:09;;;;;;;35.50;20.20;;;;;;;10.54;48.98;102107.13;5028333;28;20116;-81
2022/03/10 10:41:36;;;;;;;29.83;18.50;;;;;;;10.63;48.02;102100.53;5033282;28;20117;-81
2022/03/10 10:44:06;;;;;;;30.90;18.23;;;;;;;10.68;48.09;102103.50;5034052;28;20076;-79
2022/03/10 10:46:46;;;;;;;29.33;18.73;;;;;;;10.71;48.46;102092.28;5025498;28;20040;-79
2022/03/10 10:49:18;;;;;;;30.13;18.42;;;;;;;10.84;47.94;102105.09;5021129;28;20041;-79
2022/03/10 10:51:43;;;;;;;30.48;18.83;;;;;;;10.92;47.85;102093.28;5034321;28;20048;-80
2022/03/10 10:54:18;;;;;;;31.43;18.03;;;;;;;11.00;48.64;102090.41;5026247;28;20061;-84
2022/03/10 10:56:57;;;;;;;31.17;19.60;;;;;;;11.08;47.79;102095.69;5014547;28;20292;-83
2022/03/10 10:59:31;;;;;;;32.63;19.60;;;;;;;11.19;48.82;102099.72;5013769;28;20071;-82
2022/03/10 11:02:10;;;;;;;30.50;19.67;;;;;;;11.26;48.33;102092.47;5012035;28;20461;-82
2022/03/10 11:04:43;;;;;;;30.23;18.52;;;;;;;11.33;48.44;102089.78;5022394;28;20022;-82
2022/03/10 11:07:10;;;;;;;29.48;18.05;;;;;;;11.51;47.25;102081.97;5014151;28;20355;-79
2022/03/10 11:09:36;;;;;;;48.90;16.77;;;;;;;11.71;57.04;102081.22;5022671;28;20562;-84
2022/03/10 11:12:02;;;;;;;29.67;17.45;;;;;;;11.76;49.09;102076.03;5032102;28;20033;-79
2022/03/10 11:14:27;;;;;;;28.15;16.77;;;;;;;11.77;46.48;102074.97;5033247;28;20396;-74
2022/03/10 11:16:55;;;;;;;31.52;17.95;;;;;;;11.84;47.68;102066.88;5019758;28;20046;-79
2022/03/10 11:19:25;;;;;;;30.05;17.67;;;;;;;11.91;46.88;102077.75;5013783;28;20121;-75